Calgary / Okotoks Air Park

CFX2 · 艾伯塔, 加拿大

使用的METAR站距离机场23 NM。
罗盘
风向 的 风向 350° Calgary / Okotoks Air Park 16/34
风: 7 kt, 3 beaufort

7 kt

1 kt
改变
0 ft 5.000 10.000 15.000 20.000
Cloud Cloud Cloud Cloud
SCT 6.000
Cloud Cloud Cloud Cloud Cloud Cloud
BKN 14.000
METAR CYYC 181100Z 35007KT 20SM SCT060 BKN140 04/01 A2995 RMK SC3AC3 SLP171

METAR Calgary / Okotoks Air Park - CFX2

Calgary / Okotoks Air Park是,加拿大中的小机场。 该机场位于纬度50,73388和经度-113,93436。 该机场有一条跑道: 16/34. 该机场的伪ICAO代码为CFX2。 机场在Edmonton FIR中。

该航空气象观测是针对Calgary International Airport在2024年6月18日 05:00, 当地时间进行的。

机场观察

风向为350°,速度为7 kt。

可见度为20 mi。

有疏云,零星散落的云朵在6.000 ft的高度 和 碎云在14.000 ft的高度。 破损或更高的上限为14.000 ft。

温度为4 °C,阵风为-1 °C。 露点为1 °C,相对湿度为81%。 海平面上的气压为29,95 inHg (QNH)。

白天

今天,太阳从05:22升起,在21:51降落。 这适用于Calgary / Okotoks Air Park,世界夏令时可能有所不同。 当地时间与世界标准时间之间的时差为-6 小时。 夏令时目前正在进行中。

公司介绍

我们没有关于这个机场的公司信息。

体会

到Vliegles.nl去找飞行课程,跳伞和其他飞行体验。 浏览页面,了解Calgary / Okotoks Air Park附近所有可用的活动。 你也可以使用搜索功能来寻找你所在地附近的特定飞行课程、跳伞或其他飞行体验。

跑道

Id 标题 侧风 逆风 侧风 %
16/34 177°-357° 7 kt 12 %

逆风成分最大的方向会被突出显示,并用于横风计算。 这并不一定意味着这个方向在使用。

乌云

6.000 ft SCT 疏云,零星散落的云朵
14.000 ft BKN 碎云

温度 & 天气

温度 4 °C
露点 1 °C
相对湿度 81%
风寒 -1 °C
Kp-index 2 (0-9)

评论

SLP171海平面压力为30,03 inHg (30,03 inHg)
SC3AC3

白天

日出
05:20
中午
13:37
日落
21:54 (16:20)

小工具

你想在你的网站上有一个关于Calgary / Okotoks Air Park的当前航空天气(METAR)的小部件吗?

显示HTML代码
报告变更